Terminal Aerodrome Forecast
Issued by NWS

Home | Current Version | Previous Version | Text Only | Print | Product List | Glossary On
Versions: 1 2 3 4 5 6 7 8 9 10 11 12 13 14 15 16 17 18 19 20 21 22 23 24 25 26
000
FTUS46 KPDT 232332
TAFDLS
TAF
KDLS 232332Z 2400/2424 09005KT 6SM BR OVC020
     FM240300 10003KT 3SM BR OVC012
     FM240900 VRB03KT 1SM BR OVC006
     FM241800 30004KT 5SM BR SCT008 BKN018
     FM242100 31004KT 6SM BR BKN025=

USA.gov is the U.S. government's official web portal to all federal, state and local government web resources and services.